Time;durP1;ratioP1;P1;durP2;ratioP2;P2;SDS_P1;SDS_P2;PMS_P1;PMS_P2;Temp;Humidity;BMP_temperature;BMP_pressure;BME280_temperature;BME280_humidity;BME280_pressure;Samples;Min_cycle;Max_cycle;Signal;HPM_P1;HPM_P2
2023/06/13 00:00:07;;;;;;;3.35;2.67;;;;;;;19.70;58.74;101746.66;4950972;29;20066;-79
2023/06/13 00:02:34;;;;;;;4.82;2.45;;;;;;;19.65;59.20;101734.28;4941356;28;20059;-77
2023/06/13 00:05:03;;;;;;;7.93;2.88;;;;;;;19.62;58.96;101737.03;4941451;28;20051;-79
2023/06/13 00:07:37;;;;;;;8.35;2.70;;;;;;;19.61;58.70;101737.94;4898923;28;20047;-77
2023/06/13 00:10:06;;;;;;;5.75;2.75;;;;;;;19.57;58.67;101741.59;4964371;28;20054;-77
2023/06/13 00:12:36;;;;;;;10.65;2.80;;;;;;;19.55;59.06;101742.53;4956846;28;20043;-77
2023/06/13 00:15:05;;;;;;;6.63;2.85;;;;;;;19.52;58.35;101739.91;4962480;28;20059;-76
2023/06/13 00:17:32;;;;;;;5.00;2.78;;;;;;;19.48;58.32;101733.75;4974573;28;20509;-77
2023/06/13 00:20:00;;;;;;;8.75;2.53;;;;;;;19.46;57.83;101735.56;4889001;28;20067;-78
2023/06/13 00:22:28;;;;;;;5.30;2.95;;;;;;;19.44;58.09;101745.41;4938616;28;20043;-78
2023/06/13 00:24:56;;;;;;;8.35;3.30;;;;;;;19.41;56.97;101734.78;4968658;28;20066;-77
2023/06/13 00:27:24;;;;;;;5.57;3.50;;;;;;;19.38;56.67;101724.16;4934410;29;20058;-77
2023/06/13 00:29:51;;;;;;;4.97;3.20;;;;;;;19.37;56.97;101733.94;4953211;29;20046;-77
2023/06/13 00:32:19;;;;;;;3.35;3.05;;;;;;;19.36;56.73;101736.66;4963290;28;20047;-78
2023/06/13 00:34:47;;;;;;;5.05;3.20;;;;;;;19.33;57.27;101736.72;4957805;28;20406;-76
2023/06/13 00:37:16;;;;;;;7.65;3.08;;;;;;;19.29;56.98;101734.09;4910531;28;20051;-77
2023/06/13 00:39:44;;;;;;;5.07;3.08;;;;;;;19.27;56.73;101725.22;4934935;29;20614;-78
2023/06/13 00:42:11;;;;;;;9.30;2.80;;;;;;;19.25;56.63;101728.84;4935140;29;20055;-78
2023/06/13 00:44:39;;;;;;;5.05;2.80;;;;;;;19.20;57.66;101728.91;4949827;29;20051;-79
2023/06/13 00:47:07;;;;;;;3.22;2.60;;;;;;;19.16;57.91;101727.22;4914532;29;20106;-77
2023/06/13 00:49:34;;;;;;;3.90;2.55;;;;;;;19.13;58.75;101729.97;4958107;28;20953;-78
2023/06/13 00:52:04;;;;;;;3.35;2.70;;;;;;;19.10;60.13;101727.34;4918772;28;20055;-78
2023/06/13 00:54:37;;;;;;;3.60;3.08;;;;;;;19.07;60.10;101732.72;4927647;29;20063;-77
2023/06/13 00:57:07;;;;;;;6.97;2.83;;;;;;;19.04;60.86;101730.13;4958042;28;20038;-77
2023/06/13 00:59:34;;;;;;;5.10;2.97;;;;;;;18.98;61.71;101739.13;4930717;28;20050;-77
2023/06/13 01:02:03;;;;;;;4.15;3.08;;;;;;;18.93;61.88;101735.66;4955787;28;20047;-77
2023/06/13 01:04:34;;;;;;;4.78;3.17;;;;;;;18.88;62.29;101737.50;4939168;28;20055;-77
2023/06/13 01:07:05;;;;;;;4.72;2.80;;;;;;;18.85;63.23;101732.25;4937625;28;20525;-76
2023/06/13 01:09:34;;;;;;;5.68;3.10;;;;;;;18.81;62.63;101738.53;4947193;28;20054;-77
2023/06/13 01:12:36;;;;;;;4.38;2.88;;;;;;;18.75;63.78;101736.84;4950102;29;20051;-77
2023/06/13 01:15:07;;;;;;;6.05;2.50;;;;;;;18.72;63.02;101725.31;4929779;29;20545;-77
2023/06/13 01:17:40;;;;;;;4.22;3.13;;;;;;;18.69;63.05;101731.56;4965996;28;20549;-77
2023/06/13 01:20:14;;;;;;;5.70;2.85;;;;;;;18.66;63.88;101727.19;4953769;28;20052;-79
2023/06/13 01:23:14;;;;;;;7.70;3.05;;;;;;;18.62;64.97;101724.56;4950034;29;20422;-78
2023/06/13 01:26:02;;;;;;;4.85;3.28;;;;;;;18.57;64.71;101721.09;4954544;28;20051;-78
2023/06/13 01:28:35;;;;;;;4.47;3.30;;;;;;;18.53;64.10;101725.63;4946720;29;20501;-76
2023/06/13 01:31:06;;;;;;;3.78;3.45;;;;;;;18.48;64.08;101728.34;4950025;28;20410;-76
2023/06/13 01:33:36;;;;;;;6.50;3.05;;;;;;;18.45;63.61;101727.50;4947663;29;20414;-77
2023/06/13 01:36:04;;;;;;;3.00;2.70;;;;;;;18.43;63.76;101721.31;4929216;28;20058;-78
2023/06/13 01:38:33;;;;;;;8.02;2.97;;;;;;;18.40;63.81;101730.25;4912469;28;20525;-77
2023/06/13 01:41:01;;;;;;;11.18;3.08;;;;;;;18.38;62.85;101721.38;4975845;28;20044;-77
2023/06/13 01:43:30;;;;;;;6.22;3.20;;;;;;;18.37;62.48;101724.09;4945627;29;20043;-78
2023/06/13 01:46:05;;;;;;;6.78;2.92;;;;;;;18.35;62.91;101729.44;4945845;28;20042;-78
2023/06/13 01:48:51;;;;;;;6.35;3.05;;;;;;;18.34;62.43;101724.16;4955964;28;20058;-78
2023/06/13 01:51:44;;;;;;;7.22;3.10;;;;;;;18.33;62.24;101722.38;4937836;28;20058;-77
2023/06/13 01:54:17;;;;;;;6.68;3.38;;;;;;;18.30;61.41;101717.97;4895499;29;20494;-77
2023/06/13 01:56:49;;;;;;;4.68;2.80;;;;;;;18.31;61.35;101725.94;4946800;29;20054;-77
2023/06/13 01:59:19;;;;;;;3.22;2.92;;;;;;;18.28;61.33;101722.44;4950813;29;20414;-77
2023/06/13 02:01:48;;;;;;;3.55;2.60;;;;;;;18.28;60.98;101719.78;4948469;28;20047;-77
2023/06/13 02:04:16;;;;;;;4.22;2.63;;;;;;;18.27;60.93;101718.00;4950876;29;20058;-79
2023/06/13 02:06:43;;;;;;;6.93;2.88;;;;;;;18.25;61.08;101710.03;4936013;28;20051;-78
2023/06/13 02:09:12;;;;;;;5.88;3.40;;;;;;;18.24;61.29;101710.94;4896468;29;20066;-78
2023/06/13 02:11:44;;;;;;;3.78;2.65;;;;;;;18.23;60.35;101708.28;4971176;28;20401;-78
2023/06/13 02:14:11;;;;;;;4.55;2.83;;;;;;;18.23;60.40;101709.16;4963005;28;20406;-78
2023/06/13 02:16:39;;;;;;;4.97;3.17;;;;;;;18.23;60.62;101705.63;4923625;29;20058;-78
2023/06/13 02:19:08;;;;;;;6.55;3.42;;;;;;;18.21;59.85;101702.09;4966716;28;20047;-78
2023/06/13 02:21:35;;;;;;;5.20;3.08;;;;;;;18.20;59.83;101703.88;4940009;28;20054;-78
2023/06/13 02:24:03;;;;;;;3.88;2.85;;;;;;;18.19;59.32;101715.44;4966405;28;20051;-77
2023/06/13 02:26:31;;;;;;;4.53;2.63;;;;;;;18.18;59.06;101707.47;4926437;28;20059;-78
2023/06/13 02:28:58;;;;;;;3.85;3.20;;;;;;;18.16;58.29;101711.94;4933571;29;20052;-77
2023/06/13 02:31:26;;;;;;;6.65;3.40;;;;;;;18.17;58.15;101711.06;4945520;28;20054;-77
2023/06/13 02:33:56;;;;;;;3.38;3.08;;;;;;;18.17;58.17;101711.94;4952520;28;20051;-77
2023/06/13 02:36:23;;;;;;;6.25;3.50;;;;;;;18.16;57.85;101703.94;4949961;29;20062;-77
2023/06/13 02:38:51;;;;;;;4.18;3.25;;;;;;;18.14;57.45;101717.28;4939448;28;20047;-77
2023/06/13 02:41:18;;;;;;;3.47;3.17;;;;;;;18.12;57.26;101709.31;4914630;28;20066;-79
2023/06/13 02:43:45;;;;;;;6.05;3.40;;;;;;;18.11;57.23;101712.03;4952950;28;20066;-78
2023/06/13 02:46:13;;;;;;;9.07;3.38;;;;;;;18.08;56.87;101720.06;4929717;29;20055;-77
2023/06/13 02:48:40;;;;;;;9.77;3.60;;;;;;;18.06;56.77;101711.19;4937216;28;20051;-77
2023/06/13 02:51:08;;;;;;;4.90;3.28;;;;;;;18.04;56.55;101710.34;4933156;29;20063;-78
2023/06/13 02:53:35;;;;;;;4.25;3.75;;;;;;;18.02;56.64;101709.50;4959760;28;20054;-76
2023/06/13 02:56:03;;;;;;;4.20;3.38;;;;;;;18.00;57.22;101717.50;4933705;29;20062;-78
2023/06/13 02:58:30;;;;;;;4.35;3.08;;;;;;;17.98;57.88;101727.31;4910503;28;20055;-77
2023/06/13 03:00:59;;;;;;;5.78;3.60;;;;;;;17.95;58.85;101711.34;4965696;28;20039;-77
2023/06/13 03:03:27;;;;;;;5.13;3.78;;;;;;;17.93;59.58;101719.34;4955746;28;20051;-77
2023/06/13 03:05:59;;;;;;;6.53;3.60;;;;;;;17.91;59.07;101714.97;4934665;29;20047;-78
2023/06/13 03:08:35;;;;;;;4.50;3.45;;;;;;;17.88;59.84;101720.31;4944283;28;20055;-77
2023/06/13 03:11:03;;;;;;;9.25;3.63;;;;;;;17.85;60.01;101721.25;4953036;28;20035;-77
2023/06/13 03:13:31;;;;;;;6.07;3.33;;;;;;;17.82;60.76;101721.25;4913894;28;20054;-78
2023/06/13 03:16:01;;;;;;;7.00;3.70;;;;;;;17.77;61.92;101719.53;4952037;29;20051;-77
2023/06/13 03:18:30;;;;;;;4.20;3.30;;;;;;;17.71;63.09;101720.50;4949683;28;20419;-78
2023/06/13 03:20:58;;;;;;;3.28;2.97;;;;;;;17.63;63.81;101725.94;4950741;29;20035;-77
2023/06/13 03:23:25;;;;;;;8.32;3.00;;;;;;;17.56;64.74;101724.25;4932978;28;20047;-77
2023/06/13 03:25:53;;;;;;;4.40;3.05;;;;;;;17.53;64.82;101732.28;4944546;28;20762;-78
2023/06/13 03:28:22;;;;;;;3.33;3.03;;;;;;;17.45;64.81;101731.50;4939992;28;20051;-78
2023/06/13 03:30:54;;;;;;;7.00;3.40;;;;;;;17.37;65.33;101733.34;4916204;29;20070;-78
2023/06/13 03:33:23;;;;;;;5.60;3.30;;;;;;;17.33;65.31;101729.84;4969484;28;20050;-77
2023/06/13 03:35:53;;;;;;;3.83;3.20;;;;;;;17.29;65.47;101731.63;4937280;28;20040;-77
2023/06/13 03:38:27;;;;;;;11.15;3.25;;;;;;;17.23;65.75;101736.16;4949143;28;20059;-77
2023/06/13 03:40:55;;;;;;;5.43;3.30;;;;;;;17.14;66.06;101743.38;4963082;28;20046;-78
2023/06/13 03:43:25;;;;;;;6.18;2.63;;;;;;;17.06;67.00;101731.00;4943361;28;20059;-77
2023/06/13 03:45:53;;;;;;;2.97;2.67;;;;;;;17.01;67.77;101739.03;4942172;28;20048;-78
2023/06/13 03:48:21;;;;;;;5.15;3.15;;;;;;;16.98;69.35;101739.06;4961386;28;20048;-78
2023/06/13 03:50:49;;;;;;;4.05;2.83;;;;;;;16.94;70.27;101740.00;4925132;29;20134;-78
2023/06/13 03:53:17;;;;;;;3.60;3.00;;;;;;;16.90;70.70;101733.81;4921113;29;20490;-78
2023/06/13 03:55:44;;;;;;;4.45;2.33;;;;;;;16.87;71.21;101733.84;4932012;28;20047;-78
2023/06/13 03:58:12;;;;;;;4.07;2.40;;;;;;;16.90;72.02;101744.47;4937418;29;20058;-77
2023/06/13 04:00:40;;;;;;;3.42;2.45;;;;;;;16.91;71.59;101745.34;4925722;28;20741;-78
2023/06/13 04:03:10;;;;;;;3.70;2.35;;;;;;;16.93;72.17;101741.75;4913008;28;20051;-78
2023/06/13 04:05:38;;;;;;;6.10;2.30;;;;;;;17.13;72.13;101736.25;4925178;28;20055;-78
2023/06/13 04:08:07;;;;;;;7.30;2.78;;;;;;;17.48;71.71;101736.78;4914998;29;20070;-78
2023/06/13 04:10:36;;;;;;;6.32;2.78;;;;;;;18.12;68.73;101741.31;4949231;28;20659;-78
2023/06/13 04:13:03;;;;;;;3.85;2.72;;;;;;;18.84;65.34;101736.69;4951748;28;20047;-78
2023/06/13 04:15:30;;;;;;;4.20;2.70;;;;;;;19.56;63.15;101736.25;4896275;28;20059;-78
2023/06/13 04:17:58;;;;;;;2.78;2.50;;;;;;;20.21;60.31;101731.31;4966917;28;20051;-78
2023/06/13 04:20:27;;;;;;;4.35;2.42;;;;;;;20.68;57.52;101730.25;4925027;28;20344;-77
2023/06/13 04:22:55;;;;;;;4.57;2.58;;;;;;;21.00;56.43;101724.06;4923459;29;20047;-77
2023/06/13 04:25:22;;;;;;;3.20;2.38;;;;;;;21.35;55.12;101728.47;4929523;29;20058;-77
2023/06/13 04:27:49;;;;;;;2.83;2.50;;;;;;;21.76;51.63;101730.94;4949033;28;20545;-78
2023/06/13 04:30:17;;;;;;;5.32;2.58;;;;;;;22.09;49.94;101731.69;4931186;29;20051;-77
2023/06/13 04:32:45;;;;;;;3.65;2.50;;;;;;;22.58;50.00;101726.59;4946474;28;20047;-77
2023/06/13 04:35:17;;;;;;;2.53;2.25;;;;;;;22.94;47.95;101731.66;4931297;29;20066;-78
2023/06/13 04:37:46;;;;;;;4.45;2.55;;;;;;;23.18;47.14;101729.09;4956960;28;20043;-78
2023/06/13 04:40:13;;;;;;;2.28;2.05;;;;;;;23.52;45.64;101726.94;4969440;28;20059;-78
2023/06/13 04:42:47;;;;;;;5.68;2.78;;;;;;;23.82;44.40;101725.84;4940078;28;20054;-77
2023/06/13 04:45:20;;;;;;;3.10;2.17;;;;;;;24.15;43.85;101728.16;4949261;29;20061;-76
2023/06/13 04:47:48;;;;;;;4.07;2.42;;;;;;;24.59;42.22;101731.75;4914279;28;20074;-77
2023/06/13 04:50:25;;;;;;;3.97;2.20;;;;;;;24.73;41.23;101731.22;4953959;28;20058;-78
2023/06/13 04:52:57;;;;;;;2.78;2.38;;;;;;;24.89;40.84;101732.28;4926990;28;20058;-78
2023/06/13 04:55:29;;;;;;;3.88;2.08;;;;;;;25.14;40.79;101728.56;4946678;28;20047;-77
2023/06/13 04:57:56;;;;;;;3.08;2.10;;;;;;;25.39;39.91;101730.19;4952137;28;20051;-78
2023/06/13 05:00:24;;;;;;;3.67;2.72;;;;;;;25.52;38.92;101738.56;4924633;29;21026;-76
2023/06/13 05:02:55;;;;;;;2.33;2.13;;;;;;;25.59;38.83;101726.56;4945989;28;20442;-77
2023/06/13 05:05:23;;;;;;;5.28;2.28;;;;;;;25.83;37.65;101729.97;4932830;28;20049;-76
2023/06/13 05:07:55;;;;;;;2.55;2.35;;;;;;;26.02;38.12;101735.38;4953011;28;20047;-78
2023/06/13 05:10:27;;;;;;;3.90;2.45;;;;;;;26.44;36.35;101728.84;4909510;28;20394;-77
2023/06/13 05:12:55;;;;;;;4.80;2.47;;;;;;;26.69;37.27;101727.63;4948159;29;20051;-77
2023/06/13 05:15:24;;;;;;;5.28;2.03;;;;;;;27.00;35.69;101727.81;4936396;28;20063;-76
2023/06/13 05:17:54;;;;;;;5.97;1.92;;;;;;;27.20;35.19;101724.06;4961841;28;20042;-77
2023/06/13 05:20:26;;;;;;;3.50;2.35;;;;;;;27.46;34.81;101721.81;4894643;29;20039;-77
2023/06/13 05:22:54;;;;;;;2.65;2.25;;;;;;;27.70;34.79;101727.72;4924339;29;20414;-78
2023/06/13 05:25:21;;;;;;;4.03;1.95;;;;;;;27.92;34.34;101721.16;4955586;28;20077;-78
2023/06/13 05:27:54;;;;;;;3.20;2.10;;;;;;;28.11;34.05;101715.56;4950825;28;20066;-77
2023/06/13 05:30:22;;;;;;;2.38;1.98;;;;;;;28.25;33.83;101717.50;4945669;28;20515;-78
2023/06/13 05:32:50;;;;;;;4.65;2.90;;;;;;;28.27;32.93;101716.44;4947361;28;20043;-76
2023/06/13 05:35:17;;;;;;;3.90;2.13;;;;;;;28.39;33.14;101718.44;4905920;28;21050;-76
2023/06/13 05:37:46;;;;;;;3.22;2.38;;;;;;;28.30;32.57;101721.69;4936558;28;20047;-76
2023/06/13 05:40:14;;;;;;;4.63;2.38;;;;;;;28.22;32.81;101726.66;4951681;28;20051;-77
2023/06/13 05:42:42;;;;;;;2.67;2.47;;;;;;;27.69;32.63;101722.41;4914939;29;20043;-78
2023/06/13 05:45:11;;;;;;;4.05;1.80;;;;;;;27.55;32.89;101740.28;4937649;28;20050;-77
2023/06/13 05:47:39;;;;;;;6.23;2.07;;;;;;;27.16;33.00;101733.28;4947694;28;20055;-77
2023/06/13 05:50:06;;;;;;;2.63;1.60;;;;;;;27.25;33.48;101729.25;4903544;28;20138;-77
2023/06/13 05:52:34;;;;;;;4.38;2.10;;;;;;;27.46;33.54;101732.66;4946168;28;20055;-78
2023/06/13 05:55:04;;;;;;;4.82;2.53;;;;;;;27.57;32.87;101732.94;4923108;29;20058;-77
2023/06/13 05:57:39;;;;;;;;;;;;;;;27.33;32.74;101737.84;4941550;28;20058;-78
2023/06/13 06:00:09;;;;;;;2.38;1.98;;;;;;;27.08;33.55;101740.94;4925865;29;19929;-77
2023/06/13 06:02:48;;;;;;;6.93;2.20;;;;;;;26.90;33.19;101740.09;4933695;28;20074;-78
2023/06/13 06:05:19;;;;;;;2.88;2.15;;;;;;;26.99;33.63;101738.72;4939989;28;20051;-77
2023/06/13 06:07:46;;;;;;;4.15;2.00;;;;;;;27.01;33.99;101742.22;4926593;28;20533;-78
2023/06/13 06:10:14;;;;;;;2.50;2.10;;;;;;;27.06;33.09;101734.75;4942354;28;20426;-78
2023/06/13 06:12:42;;;;;;;1.80;1.70;;;;;;;26.45;33.24;101736.88;4943349;28;20043;-78
2023/06/13 06:15:10;;;;;;;3.60;1.83;;;;;;;26.29;33.98;101727.75;4959206;28;20059;-78
2023/06/13 06:17:37;;;;;;;3.65;2.03;;;;;;;26.23;33.75;101733.47;4942889;28;20051;-78
2023/06/13 06:20:06;;;;;;;2.88;1.67;;;;;;;26.00;34.70;101732.75;4932922;29;20055;-78
2023/06/13 06:22:35;;;;;;;4.00;2.30;;;;;;;25.84;34.71;101734.38;4909809;28;20054;-78
2023/06/13 06:25:03;;;;;;;3.00;1.90;;;;;;;25.92;34.46;101736.75;4939851;28;20058;-78
2023/06/13 06:27:30;;;;;;;5.32;2.20;;;;;;;25.82;34.86;101736.28;4958665;28;20422;-78
2023/06/13 06:29:59;;;;;;;7.05;1.83;;;;;;;25.80;34.46;101746.28;4919938;29;20048;-78
2023/06/13 06:32:26;;;;;;;4.18;2.00;;;;;;;25.55;34.51;101742.00;4952432;28;20051;-79
2023/06/13 06:34:54;;;;;;;5.72;1.80;;;;;;;25.58;35.62;101741.03;4931549;29;20055;-78
2023/06/13 06:37:22;;;;;;;5.95;2.20;;;;;;;25.33;35.52;101731.34;4903046;29;20058;-78
2023/06/13 06:39:50;;;;;;;2.22;1.88;;;;;;;25.20;34.96;101743.56;4945477;28;21576;-78
2023/06/13 06:42:18;;;;;;;4.65;2.08;;;;;;;24.73;35.37;101741.13;4920088;29;20047;-77
2023/06/13 06:44:57;;;;;;;2.30;2.10;;;;;;;24.38;36.21;101740.72;4972794;28;20059;-78
2023/06/13 06:47:25;;;;;;;3.00;2.42;;;;;;;24.04;36.34;101748.31;4947630;28;20055;-78
2023/06/13 06:49:52;;;;;;;4.47;2.00;;;;;;;23.74;37.22;101745.84;4968402;28;20047;-77
2023/06/13 06:52:20;;;;;;;3.40;1.88;;;;;;;23.54;38.35;101749.25;4928313;28;20062;-80
2023/06/13 06:54:47;;;;;;;4.50;2.20;;;;;;;23.45;38.27;101754.97;4929623;28;20057;-78
2023/06/13 06:57:14;;;;;;;5.70;2.50;;;;;;;23.32;38.46;101754.53;4940316;29;20426;-77
2023/06/13 06:59:42;;;;;;;6.00;2.53;;;;;;;23.24;38.15;101750.38;4944428;28;20410;-77
2023/06/13 07:02:09;;;;;;;6.43;2.30;;;;;;;23.04;38.83;101753.75;4962445;28;20039;-77
2023/06/13 07:04:39;;;;;;;3.60;1.87;;;;;;;22.88;39.66;101748.88;4943607;28;20524;-78
2023/06/13 07:07:06;;;;;;;3.88;2.40;;;;;;;22.87;39.38;101747.13;4949428;28;20310;-78
2023/06/13 07:09:34;;;;;;;2.58;1.80;;;;;;;22.83;39.91;101748.16;4916413;28;20051;-78
2023/06/13 07:12:02;;;;;;;4.70;1.98;;;;;;;22.95;41.25;101746.88;4974536;28;20057;-79
2023/06/13 07:14:29;;;;;;;5.47;1.92;;;;;;;23.17;40.79;101738.94;4944607;28;20046;-78
2023/06/13 07:16:57;;;;;;;10.68;2.47;;;;;;;23.20;39.98;101738.84;4944537;28;20086;-78
2023/06/13 07:19:24;;;;;;;4.30;1.80;;;;;;;23.21;40.66;101734.34;4928042;29;20059;-78
2023/06/13 07:21:52;;;;;;;5.50;2.08;;;;;;;23.21;40.15;101739.72;4940679;28;20051;-78
2023/06/13 07:24:19;;;;;;;5.28;2.33;;;;;;;23.26;40.79;101748.50;4920555;28;20054;-77
2023/06/13 07:26:47;;;;;;;2.15;1.75;;;;;;;23.31;41.02;101744.72;4911714;29;20070;-78
2023/06/13 07:29:18;;;;;;;6.65;1.90;;;;;;;23.32;40.88;101745.59;4956863;28;20051;-78
2023/06/13 07:31:45;;;;;;;3.67;2.50;;;;;;;23.32;40.62;101741.09;4983418;28;20051;-79
2023/06/13 07:34:13;;;;;;;2.85;1.98;;;;;;;23.38;40.89;101745.38;4942892;28;20051;-77
2023/06/13 07:37:00;;;;;;;6.63;2.75;;;;;;;23.55;40.53;101750.13;4920289;29;20518;-78
2023/06/13 07:39:27;;;;;;;4.10;2.45;;;;;;;23.58;39.89;101747.34;4939209;28;20051;-78
2023/06/13 07:41:55;;;;;;;6.10;2.10;;;;;;;23.54;39.83;101754.66;4956338;28;20059;-77
2023/06/13 07:44:23;;;;;;;3.05;2.05;;;;;;;23.48;40.05;101744.13;4917825;29;20058;-78
2023/06/13 07:46:50;;;;;;;2.75;2.10;;;;;;;23.43;40.07;101739.84;4952659;29;20051;-78
2023/06/13 07:49:18;;;;;;;5.10;1.77;;;;;;;23.36;40.35;101741.84;4957590;28;20059;-78
2023/06/13 07:51:45;;;;;;;4.22;1.90;;;;;;;23.43;41.06;101735.31;4952935;29;20082;-78
2023/06/13 07:54:13;;;;;;;8.43;2.20;;;;;;;23.57;41.43;101739.31;4942834;28;20058;-78
2023/06/13 07:56:40;;;;;;;5.03;2.00;;;;;;;23.68;41.24;101743.34;4907328;28;20051;-77
2023/06/13 07:59:07;;;;;;;2.53;1.73;;;;;;;23.73;41.09;101744.06;4959432;28;20050;-77
2023/06/13 08:01:35;;;;;;;6.03;2.33;;;;;;;23.80;41.49;101743.88;4932211;29;20439;-77
2023/06/13 08:04:03;;;;;;;3.05;2.40;;;;;;;23.78;41.66;101749.28;4957901;28;20051;-78
2023/06/13 08:06:31;;;;;;;4.22;2.55;;;;;;;23.68;40.25;101748.75;4951908;28;20058;-77
2023/06/13 08:08:58;;;;;;;4.50;2.20;;;;;;;23.52;40.62;101751.13;4949307;29;20047;-77
2023/06/13 08:11:26;;;;;;;3.88;2.05;;;;;;;23.49;41.25;101751.25;4918613;28;20058;-78
2023/06/13 08:13:53;;;;;;;2.40;1.80;;;;;;;23.43;40.89;101747.91;4953136;28;20047;-78
2023/06/13 08:16:22;;;;;;;6.25;2.00;;;;;;;23.57;42.98;101756.34;4942898;29;20047;-79
2023/06/13 08:18:49;;;;;;;3.13;2.08;;;;;;;23.80;43.80;101752.84;4944148;28;20055;-78
2023/06/13 08:21:17;;;;;;;5.82;1.80;;;;;;;23.97;43.12;101748.59;4930302;29;20082;-77
2023/06/13 08:23:44;;;;;;;7.25;2.08;;;;;;;24.01;42.75;101753.81;4949702;29;20054;-79
2023/06/13 08:26:12;;;;;;;4.40;2.13;;;;;;;23.98;43.32;101751.25;4921762;28;20063;-77
2023/06/13 08:28:42;;;;;;;2.58;2.00;;;;;;;24.02;43.34;101746.63;4962218;28;20061;-78
2023/06/13 08:31:10;;;;;;;4.85;1.75;;;;;;;24.04;42.90;101756.38;4942661;28;20043;-78
2023/06/13 08:34:00;;;;;;;2.60;2.20;;;;;;;23.90;43.06;101756.06;4919980;28;20063;-79
2023/06/13 08:36:38;;;;;;;4.57;2.03;;;;;;;23.84;43.31;101743.72;4962793;28;20055;-78
2023/06/13 08:39:06;;;;;;;4.80;1.98;;;;;;;23.86;44.23;101751.72;4930880;29;20043;-78
2023/06/13 08:41:36;;;;;;;5.05;2.00;;;;;;;23.82;44.10;101745.59;4952197;29;20182;-78
2023/06/13 08:44:06;;;;;;;4.03;2.00;;;;;;;23.70;43.05;101743.31;4917177;28;20055;-78
2023/06/13 08:46:36;;;;;;;3.50;2.00;;;;;;;23.60;43.67;101742.78;4951765;29;20054;-78
2023/06/13 08:49:03;;;;;;;9.18;2.58;;;;;;;23.54;43.84;101741.19;4942098;28;20062;-77
2023/06/13 08:51:32;;;;;;;2.28;2.08;;;;;;;23.56;45.15;101733.06;4954923;28;20074;-78
2023/06/13 08:54:02;;;;;;;2.83;2.10;;;;;;;23.65;45.29;101732.72;4946787;29;20043;-77
2023/06/13 08:56:35;;;;;;;3.75;2.13;;;;;;;23.72;45.79;101736.94;4935578;29;20039;-78
2023/06/13 08:59:07;;;;;;;6.18;2.10;;;;;;;23.73;44.40;101733.31;4919427;28;20047;-77
2023/06/13 09:01:37;;;;;;;5.68;2.45;;;;;;;23.69;44.23;101731.69;4951275;28;20047;-77
2023/06/13 09:04:10;;;;;;;7.47;2.08;;;;;;;23.66;46.30;101729.09;4946647;29;20051;-77
2023/06/13 09:06:39;;;;;;;5.60;2.15;;;;;;;23.68;46.54;101734.41;4929460;29;20039;-78
2023/06/13 09:09:07;;;;;;;5.43;2.10;;;;;;;23.70;47.23;101722.66;4943125;29;20065;-78
2023/06/13 09:11:36;;;;;;;2.53;1.85;;;;;;;23.75;47.62;101730.56;4922042;29;20055;-77
2023/06/13 09:14:05;;;;;;;8.23;1.83;;;;;;;23.69;46.23;101728.97;4931312;28;20050;-77
2023/06/13 09:16:33;;;;;;;4.80;1.95;;;;;;;23.58;48.17;101730.34;4938672;28;20407;-79
2023/06/13 09:19:00;;;;;;;2.35;2.15;;;;;;;23.61;49.15;101730.19;4964633;28;20066;-77
2023/06/13 09:21:28;;;;;;;3.85;2.08;;;;;;;23.63;50.38;101726.53;4969997;28;20047;-78
2023/06/13 09:23:59;;;;;;;5.25;2.03;;;;;;;23.74;51.38;101728.78;4945910;29;20039;-77
2023/06/13 09:26:27;;;;;;;6.18;2.15;;;;;;;23.84;51.43;101722.19;4948566;29;20047;-77
2023/06/13 09:28:57;;;;;;;;;;;;;;;23.92;54.52;101716.50;4919422;28;20047;-77
2023/06/13 09:31:29;;;;;;;4.00;1.90;;;;;;;23.93;53.81;101719.13;4938774;28;19930;-77
2023/06/13 09:34:00;;;;;;;4.57;1.95;;;;;;;23.99;52.76;101723.41;4927440;28;20058;-78
2023/06/13 09:36:27;;;;;;;4.20;2.25;;;;;;;23.95;53.16;101721.78;4934008;29;20055;-78
2023/06/13 09:38:59;;;;;;;3.03;2.35;;;;;;;23.95;53.38;101721.78;4944539;28;20047;-77
2023/06/13 09:41:30;;;;;;;3.47;1.95;;;;;;;23.98;53.64;101723.44;4965484;28;20050;-78
2023/06/13 09:44:04;;;;;;;4.05;2.05;;;;;;;23.92;53.01;101722.75;4925119;29;20058;-77
2023/06/13 09:46:36;;;;;;;6.13;2.08;;;;;;;23.84;52.45;101721.31;4904155;28;20043;-77
2023/06/13 09:49:06;;;;;;;5.70;2.25;;;;;;;23.79;50.37;101725.97;4943986;29;20047;-77
2023/06/13 09:51:33;;;;;;;5.03;2.55;;;;;;;23.80;49.91;101717.84;4981437;28;20070;-77
2023/06/13 09:54:00;;;;;;;5.55;2.20;;;;;;;23.82;49.24;101712.38;4930004;28;20075;-77
2023/06/13 09:56:29;;;;;;;2.60;1.77;;;;;;;23.77;50.79;101717.06;4945288;29;20422;-78
2023/06/13 09:58:56;;;;;;;5.30;2.10;;;;;;;23.83;52.67;101716.84;4913497;29;20065;-78
2023/06/13 10:01:24;;;;;;;5.43;1.77;;;;;;;23.91;52.63;101709.34;4906469;28;20066;-77
2023/06/13 10:03:52;;;;;;;7.43;2.30;;;;;;;23.98;53.27;101712.69;4948107;29;20043;-78
2023/06/13 10:06:19;;;;;;;7.15;2.10;;;;;;;24.08;52.27;101701.50;4979782;28;20051;-78
2023/06/13 10:08:46;;;;;;;8.27;2.17;;;;;;;24.16;50.46;101708.38;4944582;28;20482;-78
2023/06/13 10:11:20;;;;;;;4.53;1.40;;;;;;;24.22;48.54;101700.06;4942200;28;20785;-77
2023/06/13 10:14:11;;;;;;;5.88;2.42;;;;;;;24.25;47.03;101700.81;4947000;29;20047;-78
2023/06/13 10:16:47;;;;;;;5.72;1.92;;;;;;;24.32;46.38;101694.22;4930300;28;20062;-79
2023/06/13 10:19:39;;;;;;;5.72;1.80;;;;;;;24.34;46.02;101702.25;4958776;28;20129;-78
2023/06/13 10:22:08;;;;;;;3.33;1.80;;;;;;;24.18;45.90;101696.63;4949613;29;20047;-77
2023/06/13 10:24:37;;;;;;;4.13;2.05;;;;;;;24.20;47.00;101689.34;4943863;28;20042;-77
2023/06/13 10:27:09;;;;;;;3.25;1.55;;;;;;;24.34;44.17;101694.16;4917435;29;20051;-77
2023/06/13 10:29:40;;;;;;;2.92;2.38;;;;;;;24.40;43.87;101691.22;4951050;29;20089;-77
2023/06/13 10:32:29;;;;;;;3.30;2.00;;;;;;;24.41;42.68;101692.97;4905373;28;20058;-78
2023/06/13 10:35:31;;;;;;;4.47;1.90;;;;;;;24.48;41.81;101691.78;4937160;28;20051;-77
2023/06/13 10:38:42;;;;;;;1.95;1.80;;;;;;;24.50;40.20;101687.22;4932788;28;20047;-78
2023/06/13 10:41:38;;;;;;;4.30;1.60;;;;;;;24.54;40.25;101676.31;4932531;28;20039;-78
2023/06/13 10:44:36;;;;;;;2.28;1.63;;;;;;;24.63;40.84;101682.22;4937266;28;20039;-77
2023/06/13 10:47:07;;;;;;;2.53;1.70;;;;;;;24.74;40.72;101679.03;4914931;28;20894;-77
2023/06/13 10:49:42;;;;;;;3.47;1.83;;;;;;;24.83;39.59;101670.56;4915493;29;20066;-77
2023/06/13 10:52:12;;;;;;;6.68;2.08;;;;;;;24.84;39.33;101680.41;4974817;28;20862;-77
2023/06/13 10:54:40;;;;;;;1.52;1.42;;;;;;;24.92;39.18;101671.13;4948239;29;20051;-77
2023/06/13 10:57:08;;;;;;;2.22;1.60;;;;;;;25.00;39.28;101669.81;4921424;29;20051;-76
2023/06/13 10:59:39;;;;;;;2.00;1.80;;;;;;;25.12;38.96;101665.69;4963964;28;20055;-77
2023/06/13 11:02:18;;;;;;;3.13;1.67;;;;;;;25.20;38.38;101670.75;4910071;28;20061;-77
2023/06/13 11:04:50;;;;;;;2.03;1.80;;;;;;;25.27;37.97;101658.75;4939935;28;20047;-77
2023/06/13 11:07:21;;;;;;;3.03;1.58;;;;;;;25.04;37.93;101655.25;4939391;28;20051;-78
2023/06/13 11:10:01;;;;;;;;;;;;;;;24.81;37.79;101664.38;4971727;28;20062;-77
2023/06/13 11:12:29;;;;;;;4.65;1.70;;;;;;;24.77;39.31;101662.75;4930495;28;19950;-77
2023/06/13 11:14:59;;;;;;;1.95;1.70;;;;;;;24.87;38.78;101665.91;4949890;28;20044;-78
2023/06/13 11:17:27;;;;;;;4.72;1.70;;;;;;;24.95;38.87;101661.06;4918667;28;20056;-77
2023/06/13 11:19:56;;;;;;;9.77;2.28;;;;;;;25.09;39.46;101653.22;4961045;28;20051;-80
2023/06/13 11:22:23;;;;;;;8.73;1.92;;;;;;;25.20;38.71;101658.16;4930713;29;20399;-79
2023/06/13 11:24:53;;;;;;;2.83;1.50;;;;;;;25.09;38.21;101657.75;4961856;28;20050;-78
2023/06/13 11:27:23;;;;;;;7.82;1.83;;;;;;;25.06;39.71;101644.41;4942042;28;20490;-78
2023/06/13 11:29:51;;;;;;;4.50;1.83;;;;;;;25.09;40.11;101641.59;4972825;28;20051;-78
2023/06/13 11:32:21;;;;;;;11.75;1.50;;;;;;;25.17;39.54;101642.09;4949064;29;20043;-78
2023/06/13 11:34:54;;;;;;;3.25;1.92;;;;;;;25.26;38.90;101644.41;4918326;28;20051;-76
2023/06/13 11:37:30;;;;;;;3.05;1.60;;;;;;;25.37;38.44;101640.31;4965678;28;20525;-77
2023/06/13 11:40:02;;;;;;;3.10;1.65;;;;;;;25.29;36.84;101649.69;4949718;28;20058;-78